sensor_id;sensor_type;location;lat;lon;timestamp;temperature;humidity
65462;DHT22;53236;43.666;18.444;2023-09-18T00:02:25;12.70;99.90
65462;DHT22;53236;43.666;18.444;2023-09-18T00:04:51;12.70;99.90
65462;DHT22;53236;43.666;18.444;2023-09-18T00:07:17;12.60;99.90
65462;DHT22;53236;43.666;18.444;2023-09-18T00:09:43;12.50;99.90
65462;DHT22;53236;43.666;18.444;2023-09-18T00:12:09;12.50;99.90
65462;DHT22;53236;43.666;18.444;2023-09-18T00:14:36;12.50;99.90
65462;DHT22;53236;43.666;18.444;2023-09-18T00:17:02;12.40;99.90
65462;DHT22;53236;43.666;18.444;2023-09-18T00:19:28;12.40;99.90
65462;DHT22;53236;43.666;18.444;2023-09-18T00:21:55;12.40;99.90
65462;DHT22;53236;43.666;18.444;2023-09-18T00:24:21;12.30;99.90
65462;DHT22;53236;43.666;18.444;2023-09-18T00:26:48;12.30;99.90
65462;DHT22;53236;43.666;18.444;2023-09-18T00:29:14;12.20;99.90
65462;DHT22;53236;43.666;18.444;2023-09-18T00:31:40;12.20;99.90
65462;DHT22;53236;43.666;18.444;2023-09-18T00:34:05;12.10;99.90
65462;DHT22;53236;43.666;18.444;2023-09-18T00:36:31;12.10;99.90
65462;DHT22;53236;43.666;18.444;2023-09-18T00:38:57;12.10;99.90
65462;DHT22;53236;43.666;18.444;2023-09-18T00:41:23;12.00;99.90
65462;DHT22;53236;43.666;18.444;2023-09-18T00:43:48;12.00;99.90
65462;DHT22;53236;43.666;18.444;2023-09-18T00:46:14;12.00;99.90
65462;DHT22;53236;43.666;18.444;2023-09-18T00:48:40;12.00;99.90
65462;DHT22;53236;43.666;18.444;2023-09-18T00:51:08;11.90;99.90
65462;DHT22;53236;43.666;18.444;2023-09-18T00:53:34;11.90;99.90
65462;DHT22;53236;43.666;18.444;2023-09-18T00:56:01;11.90;99.90
65462;DHT22;53236;43.666;18.444;2023-09-18T00:58:29;11.80;99.90
65462;DHT22;53236;43.666;18.444;2023-09-18T01:00:55;11.80;99.90
65462;DHT22;53236;43.666;18.444;2023-09-18T01:03:22;11.80;99.90
65462;DHT22;53236;43.666;18.444;2023-09-18T01:05:48;11.80;99.90
65462;DHT22;53236;43.666;18.444;2023-09-18T01:08:14;11.80;99.90
65462;DHT22;53236;43.666;18.444;2023-09-18T01:10:53;11.80;99.90
65462;DHT22;53236;43.666;18.444;2023-09-18T01:13:30;11.70;99.90
65462;DHT22;53236;43.666;18.444;2023-09-18T01:16:02;11.70;99.90
65462;DHT22;53236;43.666;18.444;2023-09-18T01:18:29;11.70;99.90
65462;DHT22;53236;43.666;18.444;2023-09-18T01:20:55;11.70;99.90
65462;DHT22;53236;43.666;18.444;2023-09-18T01:23:21;11.70;99.90
65462;DHT22;53236;43.666;18.444;2023-09-18T01:25:46;11.60;99.90
65462;DHT22;53236;43.666;18.444;2023-09-18T01:28:12;11.50;99.90
65462;DHT22;53236;43.666;18.444;2023-09-18T01:30:38;11.50;99.90
65462;DHT22;53236;43.666;18.444;2023-09-18T01:33:04;11.60;99.90
65462;DHT22;53236;43.666;18.444;2023-09-18T01:35:31;11.50;99.90
65462;DHT22;53236;43.666;18.444;2023-09-18T01:37:59;11.50;99.90
65462;DHT22;53236;43.666;18.444;2023-09-18T01:40:26;11.40;99.90
65462;DHT22;53236;43.666;18.444;2023-09-18T01:42:53;11.40;99.90
65462;DHT22;53236;43.666;18.444;2023-09-18T01:45:19;11.30;99.90
65462;DHT22;53236;43.666;18.444;2023-09-18T01:47:45;11.40;99.90
65462;DHT22;53236;43.666;18.444;2023-09-18T01:50:11;11.20;99.90
65462;DHT22;53236;43.666;18.444;2023-09-18T01:52:37;11.20;99.90
65462;DHT22;53236;43.666;18.444;2023-09-18T01:55:03;11.30;99.90
65462;DHT22;53236;43.666;18.444;2023-09-18T01:57:33;11.20;99.90
65462;DHT22;53236;43.666;18.444;2023-09-18T01:59:59;11.20;99.90
65462;DHT22;53236;43.666;18.444;2023-09-18T02:02:24;11.20;99.90
65462;DHT22;53236;43.666;18.444;2023-09-18T02:04:50;11.20;99.90
65462;DHT22;53236;43.666;18.444;2023-09-18T02:07:16;11.20;99.90
65462;DHT22;53236;43.666;18.444;2023-09-18T02:09:42;11.20;99.90
65462;DHT22;53236;43.666;18.444;2023-09-18T02:12:07;11.20;99.90
65462;DHT22;53236;43.666;18.444;2023-09-18T02:14:33;11.10;99.90
65462;DHT22;53236;43.666;18.444;2023-09-18T02:16:59;11.20;99.90
65462;DHT22;53236;43.666;18.444;2023-09-18T02:19:25;11.20;99.90
65462;DHT22;53236;43.666;18.444;2023-09-18T02:21:52;11.10;99.90
65462;DHT22;53236;43.666;18.444;2023-09-18T02:24:17;11.10;99.90
65462;DHT22;53236;43.666;18.444;2023-09-18T02:26:43;11.10;99.90
65462;DHT22;53236;43.666;18.444;2023-09-18T02:29:11;11.10;99.90
65462;DHT22;53236;43.666;18.444;2023-09-18T02:31:38;11.00;99.90
65462;DHT22;53236;43.666;18.444;2023-09-18T02:34:04;11.00;99.90
65462;DHT22;53236;43.666;18.444;2023-09-18T02:36:30;11.00;99.90
65462;DHT22;53236;43.666;18.444;2023-09-18T02:38:56;11.00;99.90
65462;DHT22;53236;43.666;18.444;2023-09-18T02:41:22;11.00;99.90
65462;DHT22;53236;43.666;18.444;2023-09-18T02:43:47;11.00;99.90
65462;DHT22;53236;43.666;18.444;2023-09-18T02:46:13;10.90;99.90
65462;DHT22;53236;43.666;18.444;2023-09-18T02:48:39;10.90;99.90
65462;DHT22;53236;43.666;18.444;2023-09-18T02:51:05;10.90;99.90
65462;DHT22;53236;43.666;18.444;2023-09-18T02:53:31;10.90;99.90
65462;DHT22;53236;43.666;18.444;2023-09-18T02:55:58;10.90;99.90
65462;DHT22;53236;43.666;18.444;2023-09-18T02:58:25;10.80;99.90
65462;DHT22;53236;43.666;18.444;2023-09-18T03:00:52;10.70;99.90
65462;DHT22;53236;43.666;18.444;2023-09-18T03:03:21;10.70;99.90
65462;DHT22;53236;43.666;18.444;2023-09-18T03:05:47;10.70;99.90
65462;DHT22;53236;43.666;18.444;2023-09-18T03:08:14;10.60;99.90
65462;DHT22;53236;43.666;18.444;2023-09-18T03:10:41;10.70;99.90
65462;DHT22;53236;43.666;18.444;2023-09-18T03:13:08;10.70;99.90
65462;DHT22;53236;43.666;18.444;2023-09-18T03:15:34;10.70;99.90
65462;DHT22;53236;43.666;18.444;2023-09-18T03:18:01;10.70;99.90
65462;DHT22;53236;43.666;18.444;2023-09-18T03:20:28;10.70;99.90
65462;DHT22;53236;43.666;18.444;2023-09-18T03:22:56;10.80;99.90
65462;DHT22;53236;43.666;18.444;2023-09-18T03:25:23;10.80;99.90
65462;DHT22;53236;43.666;18.444;2023-09-18T03:27:51;10.80;99.90
65462;DHT22;53236;43.666;18.444;2023-09-18T03:30:18;10.80;99.90
65462;DHT22;53236;43.666;18.444;2023-09-18T03:32:44;10.80;99.90
65462;DHT22;53236;43.666;18.444;2023-09-18T03:35:11;10.70;99.90
65462;DHT22;53236;43.666;18.444;2023-09-18T03:37:45;10.80;99.90
65462;DHT22;53236;43.666;18.444;2023-09-18T03:40:11;10.80;99.90
65462;DHT22;53236;43.666;18.444;2023-09-18T03:42:37;10.80;99.90
65462;DHT22;53236;43.666;18.444;2023-09-18T03:45:05;10.90;99.90
65462;DHT22;53236;43.666;18.444;2023-09-18T03:47:31;10.90;99.90
65462;DHT22;53236;43.666;18.444;2023-09-18T03:49:57;10.80;99.90
65462;DHT22;53236;43.666;18.444;2023-09-18T03:52:23;10.80;99.90
65462;DHT22;53236;43.666;18.444;2023-09-18T03:54:49;10.80;99.90
65462;DHT22;53236;43.666;18.444;2023-09-18T03:57:15;10.70;99.90
65462;DHT22;53236;43.666;18.444;2023-09-18T03:59:40;10.60;99.90
65462;DHT22;53236;43.666;18.444;2023-09-18T04:02:06;10.50;99.90
65462;DHT22;53236;43.666;18.444;2023-09-18T04:04:32;10.40;99.90
65462;DHT22;53236;43.666;18.444;2023-09-18T04:06:58;10.30;99.90
65462;DHT22;53236;43.666;18.444;2023-09-18T04:09:23;10.20;99.90
65462;DHT22;53236;43.666;18.444;2023-09-18T04:11:49;10.20;99.90
65462;DHT22;53236;43.666;18.444;2023-09-18T04:14:15;10.20;99.90
65462;DHT22;53236;43.666;18.444;2023-09-18T04:16:41;10.10;99.90
65462;DHT22;53236;43.666;18.444;2023-09-18T04:19:08;10.10;99.90
65462;DHT22;53236;43.666;18.444;2023-09-18T04:21:35;10.10;99.90
65462;DHT22;53236;43.666;18.444;2023-09-18T04:24:01;10.00;99.90
65462;DHT22;53236;43.666;18.444;2023-09-18T04:26:27;9.80;99.90
65462;DHT22;53236;43.666;18.444;2023-09-18T04:28:57;9.80;99.90
65462;DHT22;53236;43.666;18.444;2023-09-18T04:31:23;9.90;99.90
65462;DHT22;53236;43.666;18.444;2023-09-18T04:33:49;10.00;99.90
65462;DHT22;53236;43.666;18.444;2023-09-18T04:36:15;10.00;99.90
65462;DHT22;53236;43.666;18.444;2023-09-18T04:38:41;10.10;99.90
65462;DHT22;53236;43.666;18.444;2023-09-18T04:41:07;10.20;99.90
65462;DHT22;53236;43.666;18.444;2023-09-18T04:43:36;10.20;99.90
65462;DHT22;53236;43.666;18.444;2023-09-18T04:46:01;10.10;99.90
65462;DHT22;53236;43.666;18.444;2023-09-18T04:48:30;10.20;99.90
65462;DHT22;53236;43.666;18.444;2023-09-18T04:50:57;10.30;99.90
65462;DHT22;53236;43.666;18.444;2023-09-18T04:53:22;10.40;99.90
65462;DHT22;53236;43.666;18.444;2023-09-18T04:55:48;10.50;99.90
65462;DHT22;53236;43.666;18.444;2023-09-18T04:58:16;10.60;99.90
65462;DHT22;53236;43.666;18.444;2023-09-18T05:00:42;10.60;99.90
65462;DHT22;53236;43.666;18.444;2023-09-18T05:03:09;10.80;99.90
65462;DHT22;53236;43.666;18.444;2023-09-18T05:05:35;10.80;99.90
65462;DHT22;53236;43.666;18.444;2023-09-18T05:08:03;10.90;99.90
65462;DHT22;53236;43.666;18.444;2023-09-18T05:10:30;11.00;99.90
65462;DHT22;53236;43.666;18.444;2023-09-18T05:12:56;11.00;99.90
65462;DHT22;53236;43.666;18.444;2023-09-18T05:15:24;11.10;99.90
65462;DHT22;53236;43.666;18.444;2023-09-18T05:17:52;11.20;99.90
65462;DHT22;53236;43.666;18.444;2023-09-18T05:20:23;11.20;99.90
65462;DHT22;53236;43.666;18.444;2023-09-18T05:22:50;11.40;99.90
65462;DHT22;53236;43.666;18.444;2023-09-18T05:25:18;11.80;99.90
65462;DHT22;53236;43.666;18.444;2023-09-18T05:27:44;12.30;99.90
65462;DHT22;53236;43.666;18.444;2023-09-18T05:30:19;13.20;99.90
65462;DHT22;53236;43.666;18.444;2023-09-18T05:32:49;14.60;99.90
65462;DHT22;53236;43.666;18.444;2023-09-18T05:35:14;16.50;99.90
65462;DHT22;53236;43.666;18.444;2023-09-18T05:37:41;18.00;98.80
65462;DHT22;53236;43.666;18.444;2023-09-18T05:40:08;19.70;90.00
65462;DHT22;53236;43.666;18.444;2023-09-18T05:42:39;21.30;77.20
65462;DHT22;53236;43.666;18.444;2023-09-18T05:45:08;22.50;70.50
65462;DHT22;53236;43.666;18.444;2023-09-18T05:47:34;23.70;63.40
65462;DHT22;53236;43.666;18.444;2023-09-18T05:50:07;24.10;62.30
65462;DHT22;53236;43.666;18.444;2023-09-18T05:52:34;25.10;60.50
65462;DHT22;53236;43.666;18.444;2023-09-18T05:55:00;26.50;58.30
65462;DHT22;53236;43.666;18.444;2023-09-18T05:57:26;27.70;56.00
65462;DHT22;53236;43.666;18.444;2023-09-18T05:59:55;28.40;54.20
65462;DHT22;53236;43.666;18.444;2023-09-18T06:02:20;29.40;51.90
65462;DHT22;53236;43.666;18.444;2023-09-18T06:04:46;30.50;49.30
65462;DHT22;53236;43.666;18.444;2023-09-18T06:07:12;30.70;47.60
65462;DHT22;53236;43.666;18.444;2023-09-18T06:09:39;30.80;48.20
65462;DHT22;53236;43.666;18.444;2023-09-18T06:12:05;30.40;48.10
65462;DHT22;53236;43.666;18.444;2023-09-18T06:14:31;30.90;47.10
65462;DHT22;53236;43.666;18.444;2023-09-18T06:17:00;32.20;47.40
65462;DHT22;53236;43.666;18.444;2023-09-18T06:19:26;32.90;46.50
65462;DHT22;53236;43.666;18.444;2023-09-18T06:21:52;33.60;45.90
65462;DHT22;53236;43.666;18.444;2023-09-18T06:24:17;34.50;44.50
65462;DHT22;53236;43.666;18.444;2023-09-18T06:26:43;34.90;44.00
65462;DHT22;53236;43.666;18.444;2023-09-18T06:29:09;35.40;43.10
65462;DHT22;53236;43.666;18.444;2023-09-18T06:31:35;35.60;42.20
65462;DHT22;53236;43.666;18.444;2023-09-18T06:34:01;35.00;42.20
65462;DHT22;53236;43.666;18.444;2023-09-18T06:36:26;34.60;42.80
65462;DHT22;53236;43.666;18.444;2023-09-18T06:38:52;35.00;42.70
65462;DHT22;53236;43.666;18.444;2023-09-18T06:41:19;35.40;43.30
65462;DHT22;53236;43.666;18.444;2023-09-18T06:43:44;36.80;42.70
65462;DHT22;53236;43.666;18.444;2023-09-18T06:46:10;37.60;41.00
65462;DHT22;53236;43.666;18.444;2023-09-18T06:48:36;38.70;40.40
65462;DHT22;53236;43.666;18.444;2023-09-18T06:51:02;39.40;39.90
65462;DHT22;53236;43.666;18.444;2023-09-18T06:53:28;39.80;39.40
65462;DHT22;53236;43.666;18.444;2023-09-18T06:55:54;40.30;39.50
65462;DHT22;53236;43.666;18.444;2023-09-18T06:58:20;40.20;39.00
65462;DHT22;53236;43.666;18.444;2023-09-18T07:00:47;39.70;39.20
65462;DHT22;53236;43.666;18.444;2023-09-18T07:03:13;40.90;39.40
65462;DHT22;53236;43.666;18.444;2023-09-18T07:05:42;40.80;39.00
65462;DHT22;53236;43.666;18.444;2023-09-18T07:08:08;42.10;38.30
65462;DHT22;53236;43.666;18.444;2023-09-18T07:10:37;42.10;38.10
65462;DHT22;53236;43.666;18.444;2023-09-18T07:13:03;42.10;38.00
65462;DHT22;53236;43.666;18.444;2023-09-18T07:15:29;41.80;37.60
65462;DHT22;53236;43.666;18.444;2023-09-18T07:17:55;42.40;37.90
65462;DHT22;53236;43.666;18.444;2023-09-18T07:20:21;43.70;37.40
65462;DHT22;53236;43.666;18.444;2023-09-18T07:22:48;44.30;37.00
65462;DHT22;53236;43.666;18.444;2023-09-18T07:25:15;45.10;36.50
65462;DHT22;53236;43.666;18.444;2023-09-18T07:27:41;44.20;36.70
65462;DHT22;53236;43.666;18.444;2023-09-18T07:30:13;44.80;36.50
65462;DHT22;53236;43.666;18.444;2023-09-18T07:32:42;45.30;36.40
65462;DHT22;53236;43.666;18.444;2023-09-18T07:35:09;45.40;36.30
65462;DHT22;53236;43.666;18.444;2023-09-18T07:37:35;46.50;35.70
65462;DHT22;53236;43.666;18.444;2023-09-18T07:40:06;47.50;35.30
65462;DHT22;53236;43.666;18.444;2023-09-18T07:42:32;46.00;35.10
65462;DHT22;53236;43.666;18.444;2023-09-18T07:44:58;46.60;35.10
65462;DHT22;53236;43.666;18.444;2023-09-18T07:47:24;46.50;35.20
65462;DHT22;53236;43.666;18.444;2023-09-18T07:49:50;46.10;35.20
65462;DHT22;53236;43.666;18.444;2023-09-18T07:52:17;46.70;35.50
65462;DHT22;53236;43.666;18.444;2023-09-18T07:54:43;47.50;34.90
65462;DHT22;53236;43.666;18.444;2023-09-18T07:57:09;47.10;34.90
65462;DHT22;53236;43.666;18.444;2023-09-18T07:59:36;46.70;35.20
65462;DHT22;53236;43.666;18.444;2023-09-18T08:02:02;47.50;34.80
65462;DHT22;53236;43.666;18.444;2023-09-18T08:04:31;49.30;34.40
65462;DHT22;53236;43.666;18.444;2023-09-18T08:06:57;50.60;33.80
65462;DHT22;53236;43.666;18.444;2023-09-18T08:09:23;49.40;34.10
65462;DHT22;53236;43.666;18.444;2023-09-18T08:11:49;49.70;33.90
65462;DHT22;53236;43.666;18.444;2023-09-18T08:14:16;50.30;33.80
65462;DHT22;53236;43.666;18.444;2023-09-18T08:16:42;50.40;33.50
65462;DHT22;53236;43.666;18.444;2023-09-18T08:19:08;48.00;33.70
65462;DHT22;53236;43.666;18.444;2023-09-18T08:21:35;47.50;34.00
65462;DHT22;53236;43.666;18.444;2023-09-18T08:24:00;47.40;34.90
65462;DHT22;53236;43.666;18.444;2023-09-18T08:26:26;48.60;34.70
65462;DHT22;53236;43.666;18.444;2023-09-18T08:28:54;50.30;34.10
65462;DHT22;53236;43.666;18.444;2023-09-18T08:31:19;49.50;33.90
65462;DHT22;53236;43.666;18.444;2023-09-18T08:33:45;50.40;33.30
65462;DHT22;53236;43.666;18.444;2023-09-18T08:36:11;50.50;33.20
65462;DHT22;53236;43.666;18.444;2023-09-18T08:38:37;50.90;33.10
65462;DHT22;53236;43.666;18.444;2023-09-18T08:41:02;49.70;33.40
65462;DHT22;53236;43.666;18.444;2023-09-18T08:43:31;50.50;33.20
65462;DHT22;53236;43.666;18.444;2023-09-18T08:45:57;51.90;33.00
65462;DHT22;53236;43.666;18.444;2023-09-18T08:48:28;50.10;33.60
65462;DHT22;53236;43.666;18.444;2023-09-18T08:51:04;50.40;33.30
65462;DHT22;53236;43.666;18.444;2023-09-18T08:53:31;49.20;33.70
65462;DHT22;53236;43.666;18.444;2023-09-18T08:55:59;50.30;33.40
65462;DHT22;53236;43.666;18.444;2023-09-18T08:58:29;48.00;34.30
65462;DHT22;53236;43.666;18.444;2023-09-18T09:00:57;48.10;35.30
65462;DHT22;53236;43.666;18.444;2023-09-18T09:03:23;48.70;32.40
65462;DHT22;53236;43.666;18.444;2023-09-18T09:05:49;49.50;33.40
65462;DHT22;53236;43.666;18.444;2023-09-18T09:08:15;50.90;32.40
65462;DHT22;53236;43.666;18.444;2023-09-18T09:10:41;51.90;32.20
65462;DHT22;53236;43.666;18.444;2023-09-18T09:13:07;49.50;30.60
65462;DHT22;53236;43.666;18.444;2023-09-18T09:15:43;47.80;33.10
65462;DHT22;53236;43.666;18.444;2023-09-18T09:18:13;46.70;33.80
65462;DHT22;53236;43.666;18.444;2023-09-18T09:20:56;47.60;33.20
65462;DHT22;53236;43.666;18.444;2023-09-18T09:23:24;48.60;33.00
65462;DHT22;53236;43.666;18.444;2023-09-18T09:25:49;48.90;31.90
65462;DHT22;53236;43.666;18.444;2023-09-18T09:28:15;49.40;32.00
65462;DHT22;53236;43.666;18.444;2023-09-18T09:30:44;50.50;31.40
65462;DHT22;53236;43.666;18.444;2023-09-18T09:33:12;50.10;31.10
65462;DHT22;53236;43.666;18.444;2023-09-18T09:35:38;49.30;31.20
65462;DHT22;53236;43.666;18.444;2023-09-18T09:40:34;45.00;34.20
65462;DHT22;53236;43.666;18.444;2023-09-18T09:43:00;45.50;33.70
65462;DHT22;53236;43.666;18.444;2023-09-18T09:45:28;43.90;34.00
65462;DHT22;53236;43.666;18.444;2023-09-18T09:47:56;43.10;35.10
65462;DHT22;53236;43.666;18.444;2023-09-18T09:50:22;41.80;35.50
65462;DHT22;53236;43.666;18.444;2023-09-18T09:52:52;40.40;37.40
65462;DHT22;53236;43.666;18.444;2023-09-18T09:55:33;38.00;38.20
65462;DHT22;53236;43.666;18.444;2023-09-18T09:58:09;36.10;41.10
65462;DHT22;53236;43.666;18.444;2023-09-18T10:00:46;34.60;41.40
65462;DHT22;53236;43.666;18.444;2023-09-18T10:03:19;34.50;43.40
65462;DHT22;53236;43.666;18.444;2023-09-18T10:05:48;34.20;43.30
65462;DHT22;53236;43.666;18.444;2023-09-18T10:08:26;34.10;44.10
65462;DHT22;53236;43.666;18.444;2023-09-18T10:11:01;33.90;44.20
65462;DHT22;53236;43.666;18.444;2023-09-18T10:13:46;33.50;44.50
65462;DHT22;53236;43.666;18.444;2023-09-18T10:16:13;33.30;45.70
65462;DHT22;53236;43.666;18.444;2023-09-18T10:24:07;30.50;49.20
65462;DHT22;53236;43.666;18.444;2023-09-18T10:29:17;29.60;51.20
65462;DHT22;53236;43.666;18.444;2023-09-18T10:31:45;29.40;51.40
65462;DHT22;53236;43.666;18.444;2023-09-18T10:34:13;29.70;51.20
65462;DHT22;53236;43.666;18.444;2023-09-18T10:36:41;29.60;52.10
65462;DHT22;53236;43.666;18.444;2023-09-18T10:39:10;29.70;52.20
65462;DHT22;53236;43.666;18.444;2023-09-18T10:41:38;29.70;51.60
65462;DHT22;53236;43.666;18.444;2023-09-18T10:44:05;29.60;51.80
65462;DHT22;53236;43.666;18.444;2023-09-18T10:46:32;29.40;52.20
65462;DHT22;53236;43.666;18.444;2023-09-18T10:48:59;29.50;51.80
65462;DHT22;53236;43.666;18.444;2023-09-18T10:51:26;29.30;51.90
65462;DHT22;53236;43.666;18.444;2023-09-18T10:53:53;29.30;52.30
65462;DHT22;53236;43.666;18.444;2023-09-18T10:56:22;29.30;53.20
65462;DHT22;53236;43.666;18.444;2023-09-18T10:58:59;29.30;53.00
65462;DHT22;53236;43.666;18.444;2023-09-18T11:01:27;29.20;52.50
65462;DHT22;53236;43.666;18.444;2023-09-18T11:03:54;29.00;52.60
65462;DHT22;53236;43.666;18.444;2023-09-18T11:06:24;29.00;52.30
65462;DHT22;53236;43.666;18.444;2023-09-18T11:08:59;29.30;52.20
65462;DHT22;53236;43.666;18.444;2023-09-18T11:11:27;29.00;51.60
65462;DHT22;53236;43.666;18.444;2023-09-18T11:13:56;28.90;51.60
65462;DHT22;53236;43.666;18.444;2023-09-18T11:19:09;28.80;53.40
65462;DHT22;53236;43.666;18.444;2023-09-18T11:21:35;28.80;53.40
65462;DHT22;53236;43.666;18.444;2023-09-18T11:24:14;28.80;53.40
65462;DHT22;53236;43.666;18.444;2023-09-18T11:26:42;28.50;53.10
65462;DHT22;53236;43.666;18.444;2023-09-18T11:29:10;28.20;53.80
65462;DHT22;53236;43.666;18.444;2023-09-18T11:31:53;28.10;54.10
65462;DHT22;53236;43.666;18.444;2023-09-18T11:34:30;28.10;53.80
65462;DHT22;53236;43.666;18.444;2023-09-18T11:37:19;28.10;54.10
65462;DHT22;53236;43.666;18.444;2023-09-18T11:39:45;28.10;54.10
65462;DHT22;53236;43.666;18.444;2023-09-18T11:42:13;28.20;54.70
65462;DHT22;53236;43.666;18.444;2023-09-18T11:44:40;28.10;53.40
65462;DHT22;53236;43.666;18.444;2023-09-18T11:47:15;28.00;54.30
65462;DHT22;53236;43.666;18.444;2023-09-18T11:49:57;28.10;53.90
65462;DHT22;53236;43.666;18.444;2023-09-18T11:52:28;28.10;54.00
65462;DHT22;53236;43.666;18.444;2023-09-18T11:54:56;28.20;54.60
65462;DHT22;53236;43.666;18.444;2023-09-18T11:57:22;28.20;52.80
65462;DHT22;53236;43.666;18.444;2023-09-18T11:59:48;28.10;54.60
65462;DHT22;53236;43.666;18.444;2023-09-18T12:02:29;28.20;54.60
65462;DHT22;53236;43.666;18.444;2023-09-18T12:05:09;28.40;54.10
65462;DHT22;53236;43.666;18.444;2023-09-18T12:07:35;28.40;54.40
65462;DHT22;53236;43.666;18.444;2023-09-18T12:10:05;28.30;53.50
65462;DHT22;53236;43.666;18.444;2023-09-18T12:12:31;28.20;52.70
65462;DHT22;53236;43.666;18.444;2023-09-18T12:14:57;28.00;53.70
65462;DHT22;53236;43.666;18.444;2023-09-18T12:17:22;27.90;53.80
65462;DHT22;53236;43.666;18.444;2023-09-18T12:19:55;27.90;54.20
65462;DHT22;53236;43.666;18.444;2023-09-18T12:22:28;27.90;54.00
65462;DHT22;53236;43.666;18.444;2023-09-18T12:25:08;28.00;54.20
65462;DHT22;53236;43.666;18.444;2023-09-18T12:27:36;27.90;54.40
65462;DHT22;53236;43.666;18.444;2023-09-18T12:30:03;27.90;54.70
65462;DHT22;53236;43.666;18.444;2023-09-18T12:32:30;28.10;54.10
65462;DHT22;53236;43.666;18.444;2023-09-18T12:34:58;28.10;53.20
65462;DHT22;53236;43.666;18.444;2023-09-18T12:37:24;28.30;52.60
65462;DHT22;53236;43.666;18.444;2023-09-18T12:39:50;28.20;51.80
65462;DHT22;53236;43.666;18.444;2023-09-18T12:42:20;28.20;51.40
65462;DHT22;53236;43.666;18.444;2023-09-18T12:44:49;28.20;51.50
65462;DHT22;53236;43.666;18.444;2023-09-18T12:47:16;28.20;51.30
65462;DHT22;53236;43.666;18.444;2023-09-18T12:49:42;28.20;50.80
65462;DHT22;53236;43.666;18.444;2023-09-18T12:52:07;28.10;52.20
65462;DHT22;53236;43.666;18.444;2023-09-18T12:54:41;27.90;51.80
65462;DHT22;53236;43.666;18.444;2023-09-18T12:57:10;27.80;52.50
65462;DHT22;53236;43.666;18.444;2023-09-18T12:59:37;28.00;53.40
65462;DHT22;53236;43.666;18.444;2023-09-18T13:02:04;28.20;53.00
65462;DHT22;53236;43.666;18.444;2023-09-18T13:04:34;28.40;52.30
65462;DHT22;53236;43.666;18.444;2023-09-18T13:07:14;28.40;53.30
65462;DHT22;53236;43.666;18.444;2023-09-18T13:09:41;28.50;52.50
65462;DHT22;53236;43.666;18.444;2023-09-18T13:12:07;28.50;53.00
65462;DHT22;53236;43.666;18.444;2023-09-18T13:15:02;28.50;53.40
65462;DHT22;53236;43.666;18.444;2023-09-18T13:17:42;28.60;52.80
65462;DHT22;53236;43.666;18.444;2023-09-18T13:20:15;28.10;52.40
65462;DHT22;53236;43.666;18.444;2023-09-18T13:22:42;27.90;53.10
65462;DHT22;53236;43.666;18.444;2023-09-18T13:25:09;27.70;53.90
65462;DHT22;53236;43.666;18.444;2023-09-18T13:27:38;27.70;54.60
65462;DHT22;53236;43.666;18.444;2023-09-18T13:30:08;27.70;54.50
65462;DHT22;53236;43.666;18.444;2023-09-18T13:32:35;27.60;54.60
65462;DHT22;53236;43.666;18.444;2023-09-18T13:35:03;27.60;55.40
65462;DHT22;53236;43.666;18.444;2023-09-18T13:37:32;27.50;56.00
65462;DHT22;53236;43.666;18.444;2023-09-18T13:39:58;27.40;55.60
65462;DHT22;53236;43.666;18.444;2023-09-18T13:42:27;27.10;55.90
65462;DHT22;53236;43.666;18.444;2023-09-18T13:44:56;27.00;56.60
65462;DHT22;53236;43.666;18.444;2023-09-18T13:47:22;27.20;57.20
65462;DHT22;53236;43.666;18.444;2023-09-18T13:49:47;27.20;56.60
65462;DHT22;53236;43.666;18.444;2023-09-18T13:52:13;27.30;56.60
65462;DHT22;53236;43.666;18.444;2023-09-18T13:54:39;27.30;56.50
65462;DHT22;53236;43.666;18.444;2023-09-18T13:57:06;27.30;56.70
65462;DHT22;53236;43.666;18.444;2023-09-18T13:59:32;27.30;56.30
65462;DHT22;53236;43.666;18.444;2023-09-18T14:01:58;27.30;56.20
65462;DHT22;53236;43.666;18.444;2023-09-18T14:04:24;27.30;56.40
65462;DHT22;53236;43.666;18.444;2023-09-18T14:06:49;27.40;56.40
65462;DHT22;53236;43.666;18.444;2023-09-18T14:09:15;27.40;57.20
65462;DHT22;53236;43.666;18.444;2023-09-18T14:11:42;27.30;57.40
65462;DHT22;53236;43.666;18.444;2023-09-18T14:14:08;27.30;56.90
65462;DHT22;53236;43.666;18.444;2023-09-18T14:16:33;27.40;56.50
65462;DHT22;53236;43.666;18.444;2023-09-18T14:19:00;27.40;56.40
65462;DHT22;53236;43.666;18.444;2023-09-18T14:21:25;27.40;56.90
65462;DHT22;53236;43.666;18.444;2023-09-18T14:23:54;27.20;57.40
65462;DHT22;53236;43.666;18.444;2023-09-18T14:26:20;27.00;57.10
65462;DHT22;53236;43.666;18.444;2023-09-18T14:28:46;27.00;57.30
65462;DHT22;53236;43.666;18.444;2023-09-18T14:31:12;27.00;57.10
65462;DHT22;53236;43.666;18.444;2023-09-18T14:33:37;26.90;57.20
65462;DHT22;53236;43.666;18.444;2023-09-18T14:36:03;26.90;57.10
65462;DHT22;53236;43.666;18.444;2023-09-18T14:38:29;26.80;57.30
65462;DHT22;53236;43.666;18.444;2023-09-18T14:40:55;26.70;58.80
65462;DHT22;53236;43.666;18.444;2023-09-18T14:43:28;26.60;58.80
65462;DHT22;53236;43.666;18.444;2023-09-18T14:45:53;26.50;59.60
65462;DHT22;53236;43.666;18.444;2023-09-18T14:48:21;26.40;60.40
65462;DHT22;53236;43.666;18.444;2023-09-18T14:50:53;26.30;60.80
65462;DHT22;53236;43.666;18.444;2023-09-18T14:53:19;26.20;60.70
65462;DHT22;53236;43.666;18.444;2023-09-18T14:55:45;26.10;61.50
65462;DHT22;53236;43.666;18.444;2023-09-18T14:58:11;26.00;63.00
65462;DHT22;53236;43.666;18.444;2023-09-18T15:00:37;25.90;63.00
65462;DHT22;53236;43.666;18.444;2023-09-18T15:03:03;25.70;63.80
65462;DHT22;53236;43.666;18.444;2023-09-18T15:05:29;25.70;64.20
65462;DHT22;53236;43.666;18.444;2023-09-18T15:07:55;25.60;65.00
65462;DHT22;53236;43.666;18.444;2023-09-18T15:10:20;25.60;66.00
65462;DHT22;53236;43.666;18.444;2023-09-18T15:12:46;25.50;65.90
65462;DHT22;53236;43.666;18.444;2023-09-18T15:15:12;25.40;67.60
65462;DHT22;53236;43.666;18.444;2023-09-18T15:17:38;25.40;70.90
65462;DHT22;53236;43.666;18.444;2023-09-18T15:20:05;25.30;72.20
65462;DHT22;53236;43.666;18.444;2023-09-18T15:22:31;25.30;72.40
65462;DHT22;53236;43.666;18.444;2023-09-18T15:24:57;25.40;73.50
65462;DHT22;53236;43.666;18.444;2023-09-18T15:27:23;25.40;72.70
65462;DHT22;53236;43.666;18.444;2023-09-18T15:29:49;25.50;73.20
65462;DHT22;53236;43.666;18.444;2023-09-18T15:32:15;25.50;74.00